createdAt,value
2022-09-05T10:55:13.981Z,19.60
2022-09-05T10:57:58.026Z,30.30
2022-09-05T11:02:23.486Z,30.00
2022-09-05T11:22:23.209Z,29.90
2022-09-05T11:25:00.963Z,30.80
2022-09-05T11:27:45.801Z,31.50
2022-09-05T11:30:30.236Z,31.60
2022-09-05T11:35:58.153Z,31.80
2022-09-05T11:39:46.973Z,31.10
2022-09-05T11:39:50.924Z,32.40
2022-09-05T11:42:05.525Z,31.70
2022-09-05T11:45:13.936Z,31.50
2022-09-05T11:48:15.028Z,32.80
2022-09-05T11:51:01.252Z,31.90
2022-09-05T12:17:35.039Z,32.80
2022-09-05T12:20:17.204Z,32.10
2022-09-05T12:23:01.703Z,31.70
2022-09-05T12:27:44.345Z,32.30
2022-09-05T12:29:33.516Z,32.60
2022-09-05T12:32:48.361Z,31.80
2022-09-05T12:36:08.057Z,32.00
2022-09-05T12:40:55.921Z,30.50
2022-09-05T12:42:14.632Z,31.40
2022-09-05T12:45:09.725Z,32.30
2022-09-05T12:47:59.318Z,33.00
2022-09-05T12:50:55.507Z,32.50
2022-09-05T12:53:27.161Z,32.30
2022-09-05T12:56:41.432Z,33.30
2022-09-05T13:03:02.598Z,34.30
2022-09-05T13:03:08.113Z,34.10
2022-09-05T13:04:53.478Z,33.40
2022-09-05T13:07:48.903Z,33.60
2022-09-05T13:14:31.395Z,34.40
2022-09-05T13:14:52.974Z,33.60
2022-09-05T13:16:29.326Z,33.30
2022-09-05T13:19:07.679Z,32.80
2022-09-05T13:21:52.604Z,32.50
2022-09-05T13:24:34.105Z,32.30
2022-09-05T13:27:15.138Z,32.70
2022-09-05T13:31:06.920Z,32.80
2022-09-05T13:37:55.665Z,33.70
2022-09-05T13:37:58.668Z,33.10
2022-09-05T13:39:07.484Z,32.90
2022-09-05T13:41:44.711Z,33.10
2022-09-05T13:44:27.517Z,33.00
2022-09-05T13:47:00.691Z,33.40
2022-09-05T13:49:40.496Z,33.40
2022-09-05T13:52:21.995Z,32.80
2022-09-05T13:55:09.039Z,31.70
2022-09-05T13:57:47.672Z,32.80
2022-09-05T14:00:39.964Z,33.00
2022-09-05T14:03:43.347Z,33.00
2022-09-05T14:06:30.795Z,33.50
2022-09-05T14:09:37.197Z,32.70
2022-09-05T14:12:11.563Z,33.40
2022-09-05T14:18:20.274Z,34.40
2022-09-05T14:21:16.177Z,34.30
2022-09-05T14:24:09.799Z,34.40
2022-09-05T14:26:58.892Z,34.10
2022-09-05T14:29:36.816Z,33.90
2022-09-05T14:37:44.923Z,32.60
2022-09-05T14:37:46.539Z,32.80
2022-09-05T14:38:15.208Z,32.00
2022-09-05T14:41:18.966Z,31.80
2022-09-05T14:44:05.364Z,31.90
2022-09-05T14:46:50.889Z,32.30
2022-09-05T14:50:06.168Z,32.10
2022-09-05T14:52:43.851Z,31.40
2022-09-05T14:55:19.617Z,31.50
2022-09-05T15:02:39.846Z,31.00
2022-09-05T15:02:48.283Z,30.80
2022-09-05T15:06:38.548Z,30.60
2022-09-05T15:12:28.073Z,30.50
2022-09-05T15:15:00.704Z,31.00
2022-09-05T15:17:28.576Z,31.10
2022-09-05T15:20:09.682Z,31.80
2022-09-05T15:22:41.715Z,31.70
2022-09-05T15:25:21.411Z,31.40
2022-09-05T15:27:49.570Z,31.50
2022-09-05T15:30:34.720Z,31.30
2022-09-05T15:33:25.256Z,31.00
2022-09-05T15:35:53.463Z,30.90
2022-09-05T15:38:55.337Z,31.00
2022-09-05T15:41:27.885Z,30.80
2022-09-05T15:44:09.609Z,30.80
2022-09-05T15:46:53.124Z,30.50
2022-09-05T15:52:09.142Z,29.90
2022-09-05T15:54:48.978Z,29.90
2022-09-05T15:57:29.002Z,29.90
2022-09-05T16:00:02.081Z,29.70
2022-09-05T16:02:44.825Z,29.60
2022-09-05T16:10:29.159Z,29.70
2022-09-05T16:10:44.977Z,29.50
2022-09-05T16:11:59.550Z,29.50
2022-09-05T16:14:20.822Z,29.60
2022-09-05T16:23:12.738Z,29.40
2022-09-05T16:23:18.433Z,29.50
2022-09-05T16:23:30.260Z,29.30
2022-09-05T16:25:30.485Z,29.10
2022-09-05T16:28:10.702Z,29.10
2022-09-05T16:30:39.143Z,29.20
2022-09-05T16:33:29.450Z,29.20
2022-09-05T16:36:04.498Z,29.20
2022-09-05T16:38:52.910Z,29.20
2022-09-05T16:41:27.688Z,29.10
2022-09-05T16:44:02.098Z,29.10
2022-09-05T16:46:35.780Z,29.10
2022-09-05T16:49:11.885Z,29.30
2022-09-05T16:52:05.753Z,29.10
2022-09-05T16:54:37.959Z,29.10
2022-09-05T16:57:15.353Z,29.00
2022-09-05T16:59:44.098Z,28.90
2022-09-05T17:02:16.020Z,28.90
2022-09-05T17:05:10.565Z,28.90
2022-09-05T17:07:46.269Z,28.90
2022-09-05T17:10:19.895Z,28.80
2022-09-05T17:12:54.601Z,28.70
2022-09-05T17:15:51.590Z,28.70
2022-09-05T17:18:25.905Z,28.70
2022-09-05T17:20:58.058Z,28.80
2022-09-05T17:28:52.724Z,28.70
2022-09-05T17:29:45.743Z,28.60
2022-09-05T17:33:04.153Z,28.50
2022-09-05T17:35:51.760Z,28.40
2022-09-05T17:38:48.177Z,28.40
2022-09-05T17:41:20.865Z,28.40
2022-09-05T17:44:07.017Z,28.30
2022-09-05T17:46:38.964Z,28.30
2022-09-05T17:49:19.655Z,28.20
2022-09-05T17:52:16.426Z,28.10
2022-09-05T17:54:49.676Z,28.00
2022-09-05T17:57:29.227Z,27.90
2022-09-05T18:00:03.821Z,27.90
2022-09-05T18:02:56.906Z,27.80
2022-09-05T18:05:56.878Z,27.70
2022-09-05T18:08:45.438Z,27.70
2022-09-05T18:11:27.585Z,27.60
2022-09-05T18:14:03.434Z,27.50
2022-09-05T18:16:31.610Z,27.40
2022-09-05T18:19:34.598Z,27.30
2022-09-05T18:23:15.753Z,27.30
2022-09-05T20:11:37.377Z,27.20
2022-09-05T20:14:32.068Z,25.40
2022-09-05T20:17:18.377Z,25.30
2022-09-05T20:19:45.890Z,25.20
2022-09-05T20:22:47.499Z,25.20
2022-09-05T20:25:34.698Z,25.10
2022-09-05T20:28:07.094Z,25.10
2022-09-05T21:34:31.834Z,25.00
2022-09-05T23:51:11.106Z,24.20
2022-09-05T23:53:38.678Z,22.70
2022-09-05T23:56:07.429Z,22.60
2022-09-05T23:58:35.477Z,22.60
